createdAt,value
2017-10-21T00:00:16.218Z,7.70
2017-10-21T00:02:42.547Z,7.70
2017-10-21T00:05:08.842Z,7.60
2017-10-21T00:07:35.133Z,7.70
2017-10-21T00:10:02.176Z,7.60
2017-10-21T00:12:28.467Z,7.50
2017-10-21T00:14:55.501Z,7.60
2017-10-21T00:17:22.763Z,7.60
2017-10-21T00:19:49.075Z,7.70
2017-10-21T00:22:15.370Z,7.60
2017-10-21T00:24:41.642Z,7.60
2017-10-21T00:27:07.964Z,7.70
2017-10-21T00:29:34.267Z,7.60
2017-10-21T00:32:00.526Z,7.70
2017-10-21T00:34:26.834Z,7.60
2017-10-21T00:36:53.127Z,7.70
2017-10-21T00:39:19.410Z,7.70
2017-10-21T00:41:45.727Z,7.70
2017-10-21T00:44:12.022Z,7.70
2017-10-21T00:46:38.337Z,7.90
2017-10-21T00:49:04.669Z,8.00
2017-10-21T00:51:30.935Z,8.00
2017-10-21T00:53:57.202Z,8.00
2017-10-21T00:56:24.274Z,8.00
2017-10-21T00:58:50.578Z,8.00
2017-10-21T01:01:16.895Z,8.00
2017-10-21T01:03:43.258Z,8.00
2017-10-21T01:06:10.315Z,8.10
2017-10-21T01:08:36.642Z,8.10
2017-10-21T01:11:02.991Z,8.00
2017-10-21T01:13:29.304Z,8.00
2017-10-21T01:15:55.598Z,8.00
2017-10-21T01:18:21.944Z,8.10
2017-10-21T01:20:48.262Z,8.00
2017-10-21T01:23:15.322Z,8.10
2017-10-21T01:25:42.424Z,8.10
2017-10-21T01:28:09.754Z,8.10
2017-10-21T01:30:36.091Z,8.10
2017-10-21T01:33:02.490Z,8.10
2017-10-21T01:35:29.630Z,8.20
2017-10-21T01:37:55.982Z,8.20
2017-10-21T01:40:22.355Z,8.20
2017-10-21T01:42:48.694Z,8.30
2017-10-21T01:45:15.026Z,8.30
2017-10-21T01:47:41.387Z,8.40
2017-10-21T01:50:07.710Z,8.40
2017-10-21T01:52:34.042Z,8.50
2017-10-21T01:55:00.370Z,8.50
2017-10-21T01:57:26.670Z,8.50
2017-10-21T01:59:53.007Z,8.40
2017-10-21T02:02:20.426Z,8.40
2017-10-21T02:04:46.716Z,8.50
2017-10-21T02:07:14.086Z,8.50
2017-10-21T02:09:40.418Z,8.40
2017-10-21T02:12:06.709Z,8.40
2017-10-21T02:14:33.038Z,8.40
2017-10-21T02:16:59.375Z,8.40
2017-10-21T02:19:25.724Z,8.30
2017-10-21T02:21:52.766Z,8.30
2017-10-21T02:24:19.125Z,8.30
2017-10-21T02:26:46.195Z,8.30
2017-10-21T02:29:13.255Z,8.20
2017-10-21T02:31:40.316Z,8.20
2017-10-21T02:34:06.651Z,8.20
2017-10-21T02:36:32.971Z,8.20
2017-10-21T02:38:59.307Z,8.10
2017-10-21T02:41:25.627Z,8.10
2017-10-21T02:43:51.935Z,8.00
2017-10-21T02:46:18.286Z,8.00
2017-10-21T02:48:44.573Z,7.90
2017-10-21T02:51:10.906Z,7.80
2017-10-21T02:53:37.214Z,7.80
2017-10-21T02:56:03.527Z,7.80
2017-10-21T02:58:29.824Z,7.60
2017-10-21T03:00:56.947Z,7.60
2017-10-21T03:03:23.238Z,7.60
2017-10-21T03:05:49.575Z,7.60
2017-10-21T03:08:15.923Z,7.80
2017-10-21T03:10:42.288Z,7.80
2017-10-21T03:13:08.591Z,7.70
2017-10-21T03:15:34.914Z,7.60
2017-10-21T03:18:01.230Z,7.60
2017-10-21T03:20:27.562Z,7.50
2017-10-21T03:22:53.883Z,7.50
2017-10-21T03:25:20.194Z,7.50
2017-10-21T03:27:46.503Z,7.60
2017-10-21T03:30:13.568Z,7.70
2017-10-21T03:32:39.914Z,7.70
2017-10-21T03:35:06.226Z,7.70
2017-10-21T03:37:32.544Z,7.70
2017-10-21T03:40:00.690Z,7.70
2017-10-21T03:42:26.998Z,7.70
2017-10-21T03:44:53.287Z,7.80
2017-10-21T03:47:19.612Z,7.80
2017-10-21T03:49:46.618Z,7.90
2017-10-21T03:52:12.918Z,7.90
2017-10-21T03:54:39.222Z,8.00
2017-10-21T03:57:05.545Z,8.00
2017-10-21T03:59:31.834Z,8.00
2017-10-21T04:01:58.148Z,8.10
2017-10-21T04:04:25.170Z,8.10
2017-10-21T04:06:51.486Z,8.10
2017-10-21T04:09:17.827Z,8.20
2017-10-21T04:11:44.135Z,8.20
2017-10-21T04:14:10.473Z,8.30
2017-10-21T04:16:36.826Z,8.30
2017-10-21T04:19:03.122Z,8.30
2017-10-21T04:21:30.238Z,8.40
2017-10-21T04:23:56.578Z,8.40
2017-10-21T04:26:23.652Z,8.40
2017-10-21T04:28:49.967Z,8.40
2017-10-21T04:31:16.267Z,8.40
2017-10-21T04:33:42.559Z,8.50
2017-10-21T04:36:08.873Z,8.50
2017-10-21T04:38:35.171Z,8.50
2017-10-21T04:41:02.433Z,8.40
2017-10-21T04:43:28.742Z,8.40
2017-10-21T04:45:55.779Z,8.60
2017-10-21T04:48:22.064Z,8.60
2017-10-21T04:50:48.383Z,8.60
2017-10-21T04:53:14.658Z,8.60
2017-10-21T04:55:40.965Z,8.50
2017-10-21T04:58:07.278Z,8.60
2017-10-21T05:00:34.343Z,8.40
2017-10-21T05:03:00.603Z,8.40
2017-10-21T05:05:26.927Z,8.50
2017-10-21T05:07:53.190Z,8.50
2017-10-21T05:10:19.462Z,8.40
2017-10-21T05:12:45.801Z,8.20
2017-10-21T05:15:12.098Z,8.20
2017-10-21T05:17:38.428Z,8.20
2017-10-21T05:20:04.767Z,8.20
2017-10-21T05:22:31.098Z,8.20
2017-10-21T05:24:57.385Z,8.20
2017-10-21T05:27:24.461Z,8.20
2017-10-21T05:29:51.495Z,8.10
2017-10-21T05:32:17.800Z,8.10
2017-10-21T05:34:44.123Z,8.00
2017-10-21T05:37:11.455Z,7.90
2017-10-21T05:39:37.722Z,7.90
2017-10-21T05:42:04.022Z,7.90
2017-10-21T05:44:30.326Z,7.90
2017-10-21T05:46:56.598Z,8.00
2017-10-21T05:49:22.890Z,8.10
2017-10-21T05:51:49.208Z,8.10
2017-10-21T05:54:15.476Z,8.20
2017-10-21T05:56:41.778Z,8.20
2017-10-21T05:59:08.072Z,8.30
2017-10-21T06:01:34.387Z,8.40
2017-10-21T06:04:00.731Z,8.40
2017-10-21T06:06:27.035Z,8.50
2017-10-21T06:08:54.367Z,8.50
2017-10-21T06:11:20.698Z,8.60
2017-10-21T06:13:47.750Z,8.60
2017-10-21T06:16:14.078Z,8.60
2017-10-21T06:18:40.413Z,8.60
2017-10-21T06:21:06.751Z,8.60
2017-10-21T06:23:33.787Z,8.60
2017-10-21T06:26:00.830Z,8.70
2017-10-21T06:28:27.138Z,8.70
2017-10-21T06:30:54.210Z,8.80
2017-10-21T06:33:20.520Z,8.80
2017-10-21T06:35:46.854Z,8.80
2017-10-21T06:38:13.159Z,8.80
2017-10-21T06:40:40.223Z,8.90
2017-10-21T06:43:07.641Z,8.90
2017-10-21T06:45:33.926Z,8.80
2017-10-21T06:48:01.271Z,8.90
2017-10-21T06:50:27.587Z,8.90
2017-10-21T06:52:54.890Z,8.90
2017-10-21T06:55:21.226Z,8.90
2017-10-21T06:57:47.502Z,9.00
2017-10-21T07:00:14.619Z,9.20
2017-10-21T07:02:40.930Z,9.20
2017-10-21T07:05:07.210Z,9.20
2017-10-21T07:07:33.479Z,9.20
2017-10-21T07:09:59.848Z,9.30
2017-10-21T07:12:26.162Z,9.30
2017-10-21T07:14:52.478Z,9.40
2017-10-21T07:17:19.541Z,9.50
2017-10-21T07:19:45.823Z,9.50
2017-10-21T07:22:12.866Z,9.50
2017-10-21T07:24:39.227Z,9.50
2017-10-21T07:27:05.518Z,9.60
2017-10-21T07:29:31.827Z,9.60
2017-10-21T07:31:58.899Z,9.70
2017-10-21T07:34:25.955Z,9.80
2017-10-21T07:36:52.998Z,9.90
2017-10-21T07:39:19.300Z,9.90
2017-10-21T07:41:45.615Z,9.90
2017-10-21T07:44:11.926Z,10.00
2017-10-21T07:46:38.187Z,10.10
2017-10-21T07:49:05.235Z,10.20
2017-10-21T07:51:31.515Z,10.20
2017-10-21T07:53:57.814Z,10.20
2017-10-21T07:56:24.115Z,10.30
2017-10-21T07:58:50.379Z,10.40
2017-10-21T08:01:16.703Z,10.40
2017-10-21T08:03:43.001Z,10.50
2017-10-21T08:06:09.334Z,10.50
2017-10-21T08:08:35.635Z,10.60
2017-10-21T08:11:01.942Z,10.70
2017-10-21T08:13:28.986Z,10.80
2017-10-21T08:15:56.011Z,10.80
2017-10-21T08:18:22.316Z,10.80
2017-10-21T08:20:48.667Z,10.90
2017-10-21T08:23:14.987Z,11.00
2017-10-21T08:25:41.250Z,11.10
2017-10-21T08:28:07.543Z,11.20
2017-10-21T08:30:34.605Z,11.40
2017-10-21T08:33:00.928Z,11.40
2017-10-21T08:35:27.270Z,11.50
2017-10-21T08:37:53.574Z,11.70
2017-10-21T08:40:20.855Z,11.80
2017-10-21T08:42:47.165Z,11.90
2017-10-21T08:45:14.222Z,12.00
2017-10-21T08:47:40.528Z,12.00
2017-10-21T08:50:06.807Z,12.10
2017-10-21T08:52:36.855Z,12.10
2017-10-21T08:55:04.446Z,12.10
2017-10-21T08:57:31.466Z,12.20
2017-10-21T08:59:57.798Z,12.20
2017-10-21T09:02:24.089Z,12.30
2017-10-21T09:04:50.367Z,12.30
2017-10-21T09:07:16.703Z,12.40
2017-10-21T09:09:42.994Z,12.40
2017-10-21T09:12:09.278Z,12.40
2017-10-21T09:14:36.642Z,12.40
2017-10-21T09:17:02.960Z,12.40
2017-10-21T09:19:30.014Z,12.50
2017-10-21T09:21:57.059Z,12.70
2017-10-21T09:24:23.346Z,12.60
2017-10-21T09:26:49.642Z,12.90
2017-10-21T09:29:15.947Z,13.00
2017-10-21T09:31:42.257Z,13.10
2017-10-21T09:34:08.526Z,13.20
2017-10-21T09:36:34.838Z,13.40
2017-10-21T09:39:01.915Z,13.30
2017-10-21T09:41:28.207Z,13.30
2017-10-21T09:43:54.499Z,13.30
2017-10-21T09:46:20.751Z,13.30
2017-10-21T09:48:47.092Z,13.30
2017-10-21T09:51:15.215Z,13.30
2017-10-21T09:53:42.265Z,13.30
2017-10-21T09:56:09.567Z,13.30
2017-10-21T09:58:35.846Z,13.30
2017-10-21T10:01:02.127Z,13.20
2017-10-21T10:03:29.170Z,13.20
2017-10-21T10:05:55.487Z,13.10
2017-10-21T10:08:21.754Z,13.20
2017-10-21T10:10:48.803Z,13.30
2017-10-21T10:13:15.894Z,13.30
2017-10-21T10:15:42.938Z,13.30
2017-10-21T10:18:09.255Z,13.30
2017-10-21T10:20:35.558Z,13.30
2017-10-21T10:23:02.788Z,13.30
2017-10-21T10:25:29.219Z,13.30
2017-10-21T10:27:55.594Z,13.40
2017-10-21T10:30:22.910Z,13.50
2017-10-21T10:32:49.191Z,13.60
2017-10-21T10:35:15.524Z,13.60
2017-10-21T10:37:41.807Z,13.60
2017-10-21T10:40:08.827Z,13.80
2017-10-21T10:42:35.146Z,13.80
2017-10-21T10:45:01.407Z,13.80
2017-10-21T10:47:27.713Z,13.90
2017-10-21T10:49:54.039Z,14.00
2017-10-21T10:52:20.342Z,14.00
2017-10-21T10:54:47.385Z,14.00
2017-10-21T10:57:13.682Z,14.00
2017-10-21T10:59:39.989Z,14.00
2017-10-21T11:02:06.298Z,14.00
2017-10-21T11:04:32.603Z,14.00
2017-10-21T11:06:58.906Z,14.00
2017-10-21T11:09:25.194Z,14.00
2017-10-21T11:11:51.530Z,14.00
2017-10-21T11:14:17.814Z,14.00
2017-10-21T11:16:44.078Z,13.90
2017-10-21T11:19:11.160Z,14.00
2017-10-21T11:21:37.479Z,13.90
2017-10-21T11:24:03.777Z,14.00
2017-10-21T11:26:30.131Z,14.10
2017-10-21T11:28:56.419Z,14.10
2017-10-21T11:31:22.713Z,14.10
2017-10-21T11:33:49.762Z,14.20
2017-10-21T11:36:16.035Z,14.20
2017-10-21T11:38:42.352Z,14.30
2017-10-21T11:41:08.666Z,14.20
2017-10-21T11:43:35.749Z,14.20
2017-10-21T11:46:02.060Z,14.20
2017-10-21T11:48:28.402Z,14.20
2017-10-21T11:50:54.703Z,14.30
2017-10-21T11:53:21.002Z,14.30
2017-10-21T11:55:48.344Z,14.30
2017-10-21T11:58:14.672Z,14.40
2017-10-21T12:00:40.999Z,14.40
2017-10-21T12:03:07.319Z,14.40
2017-10-21T12:05:33.641Z,14.50
2017-10-21T12:08:00.032Z,14.60
2017-10-21T12:10:26.341Z,14.60
2017-10-21T12:12:52.632Z,14.60
2017-10-21T12:15:18.913Z,14.70
2017-10-21T12:17:45.225Z,14.80
2017-10-21T12:20:12.251Z,14.90
2017-10-21T12:22:38.550Z,14.80
2017-10-21T12:25:04.852Z,14.90
2017-10-21T12:27:31.161Z,15.00
2017-10-21T12:29:57.637Z,15.10
2017-10-21T12:32:23.961Z,15.10
2017-10-21T12:34:50.627Z,15.10
2017-10-21T12:37:17.082Z,15.10
2017-10-21T12:39:43.496Z,15.10
2017-10-21T12:42:09.791Z,15.10
2017-10-21T12:44:36.169Z,15.10
2017-10-21T12:47:02.501Z,15.10
2017-10-21T12:49:29.547Z,15.00
2017-10-21T12:51:55.867Z,15.00
2017-10-21T12:54:22.230Z,15.00
2017-10-21T12:56:48.647Z,15.00
2017-10-21T12:59:15.723Z,15.00
2017-10-21T13:01:42.054Z,14.90
2017-10-21T13:04:08.462Z,14.90
2017-10-21T13:06:34.790Z,14.90
2017-10-21T13:09:01.868Z,15.10
2017-10-21T13:11:29.022Z,15.20
2017-10-21T13:13:55.385Z,15.20
2017-10-21T13:16:21.728Z,15.40
2017-10-21T13:18:49.063Z,15.60
2017-10-21T13:21:15.387Z,15.60
2017-10-21T13:23:41.699Z,15.60
2017-10-21T13:26:08.231Z,15.50
2017-10-21T13:28:34.525Z,15.50
2017-10-21T13:31:00.878Z,15.50
2017-10-21T13:33:27.187Z,15.50
2017-10-21T13:35:53.466Z,15.50
2017-10-21T13:38:19.816Z,15.70
2017-10-21T13:40:46.108Z,15.70
2017-10-21T13:43:12.394Z,15.70
2017-10-21T13:45:38.706Z,15.70
2017-10-21T13:48:05.034Z,15.70
2017-10-21T13:50:31.445Z,15.60
2017-10-21T13:52:58.007Z,15.70
2017-10-21T13:55:24.340Z,15.70
2017-10-21T13:57:50.668Z,15.70
2017-10-21T14:00:17.081Z,15.70
2017-10-21T14:02:43.411Z,15.60
2017-10-21T14:05:09.700Z,15.60
2017-10-21T14:07:36.023Z,15.50
2017-10-21T14:10:04.259Z,15.60
2017-10-21T14:12:30.657Z,15.60
2017-10-21T14:14:57.744Z,15.60
2017-10-21T14:17:24.034Z,15.70
2017-10-21T14:19:50.430Z,15.60
2017-10-21T14:22:17.490Z,15.60
2017-10-21T14:24:43.795Z,15.50
2017-10-21T14:27:10.821Z,15.70
2017-10-21T14:29:37.321Z,15.70
2017-10-21T14:32:03.667Z,15.70
2017-10-21T14:34:29.978Z,15.80
2017-10-21T14:36:56.378Z,15.80
2017-10-21T14:39:22.760Z,15.90
2017-10-21T14:41:49.088Z,15.80
2017-10-21T14:44:15.502Z,15.80
2017-10-21T14:46:41.892Z,15.90
2017-10-21T14:49:08.290Z,15.90
2017-10-21T14:51:34.723Z,16.00
2017-10-21T14:54:01.945Z,15.80
2017-10-21T14:56:28.356Z,15.80
2017-10-21T14:58:54.845Z,15.80
2017-10-21T15:01:21.185Z,15.90
2017-10-21T15:03:48.215Z,15.80
2017-10-21T15:06:14.849Z,15.80
2017-10-21T15:08:42.162Z,15.70
2017-10-21T15:11:08.471Z,15.70
2017-10-21T15:13:34.786Z,15.80
2017-10-21T15:16:01.062Z,15.70
2017-10-21T15:18:27.370Z,15.60
2017-10-21T15:20:53.642Z,15.80
2017-10-21T15:23:19.938Z,15.70
2017-10-21T15:25:46.215Z,15.70
2017-10-21T15:28:12.561Z,15.60
2017-10-21T15:30:38.841Z,15.60
2017-10-21T15:33:05.307Z,15.60
2017-10-21T15:35:31.683Z,15.60
2017-10-21T15:37:58.798Z,15.50
2017-10-21T15:40:25.074Z,15.50
2017-10-21T15:42:52.180Z,15.40
2017-10-21T15:45:18.584Z,15.40
2017-10-21T15:47:45.116Z,15.40
2017-10-21T15:50:12.230Z,15.40
2017-10-21T15:52:38.581Z,15.40
2017-10-21T15:55:04.922Z,15.40
2017-10-21T15:57:31.234Z,15.40
2017-10-21T15:59:59.400Z,15.30
2017-10-21T16:02:25.829Z,15.30
2017-10-21T16:04:53.145Z,15.30
2017-10-21T16:07:19.610Z,15.30
2017-10-21T16:09:46.751Z,15.20
2017-10-21T16:12:13.533Z,15.20
2017-10-21T16:14:40.012Z,15.20
2017-10-21T16:17:06.532Z,15.10
2017-10-21T16:19:33.035Z,15.20
2017-10-21T16:21:59.369Z,15.10
2017-10-21T16:24:25.654Z,15.00
2017-10-21T16:26:51.976Z,15.00
2017-10-21T16:29:18.265Z,14.90
2017-10-21T16:31:44.559Z,14.90
2017-10-21T16:34:10.871Z,14.90
2017-10-21T16:36:37.932Z,15.00
2017-10-21T16:39:04.231Z,15.00
2017-10-21T16:41:30.595Z,14.90
2017-10-21T16:43:56.887Z,15.00
2017-10-21T16:46:24.008Z,15.00
2017-10-21T16:48:50.442Z,15.00
2017-10-21T16:51:16.823Z,15.00
2017-10-21T16:53:43.190Z,15.10
2017-10-21T16:56:09.500Z,15.00
2017-10-21T16:58:35.821Z,15.10
2017-10-21T17:01:02.119Z,15.20
2017-10-21T17:03:28.447Z,15.20
2017-10-21T17:05:54.746Z,15.30
2017-10-21T17:08:21.061Z,15.30
2017-10-21T17:10:47.368Z,15.20
2017-10-21T17:13:13.891Z,15.20
2017-10-21T17:15:41.124Z,15.20
2017-10-21T17:18:08.095Z,15.00
2017-10-21T17:20:35.093Z,15.00
2017-10-21T17:23:02.484Z,15.00
2017-10-21T17:25:30.040Z,15.00
2017-10-21T17:27:58.870Z,15.10
2017-10-21T17:30:28.317Z,15.00
2017-10-21T17:32:56.192Z,15.00
2017-10-21T17:35:25.226Z,14.90
2017-10-21T17:37:53.031Z,14.90
2017-10-21T17:40:21.066Z,14.90
2017-10-21T17:42:49.491Z,14.70
2017-10-21T17:45:17.237Z,14.70
2017-10-21T17:47:48.606Z,14.70
2017-10-21T17:50:16.978Z,14.70
2017-10-21T17:52:44.870Z,14.60
2017-10-21T17:55:12.607Z,14.40
2017-10-21T17:57:41.180Z,14.30
2017-10-21T18:00:09.927Z,14.20
2017-10-21T18:02:38.550Z,14.20
2017-10-21T18:05:06.362Z,14.10
2017-10-21T18:07:34.156Z,14.10
2017-10-21T18:10:02.531Z,14.10
2017-10-21T18:12:34.249Z,14.00
2017-10-21T18:15:03.215Z,13.90
2017-10-21T18:17:33.235Z,13.70
2017-10-21T18:20:01.228Z,13.70
2017-10-21T18:22:30.754Z,13.70
2017-10-21T18:24:59.685Z,13.60
2017-10-21T18:27:28.417Z,13.40
2017-10-21T18:29:57.509Z,13.40
2017-10-21T18:32:25.384Z,13.20
2017-10-21T18:34:53.967Z,13.20
2017-10-21T18:37:23.123Z,13.20
2017-10-21T18:39:51.171Z,13.10
2017-10-21T18:42:20.244Z,13.00
2017-10-21T18:44:50.149Z,13.00
2017-10-21T18:47:20.891Z,12.90
2017-10-21T18:49:49.541Z,12.90
2017-10-21T18:52:18.328Z,12.90
2017-10-21T18:54:47.941Z,12.90
2017-10-21T18:57:18.140Z,12.80
2017-10-21T18:59:47.376Z,12.80
2017-10-21T19:02:17.419Z,12.80
2017-10-21T19:04:46.168Z,12.80
2017-10-21T19:07:14.005Z,12.80
2017-10-21T19:09:42.812Z,12.80
2017-10-21T19:12:11.587Z,12.80
2017-10-21T19:14:40.718Z,12.80
2017-10-21T19:17:09.677Z,12.80
2017-10-21T19:19:38.843Z,12.80
2017-10-21T19:22:07.860Z,12.80
2017-10-21T19:24:36.519Z,12.80
2017-10-21T19:27:04.421Z,12.80
2017-10-21T19:29:32.252Z,12.80
2017-10-21T19:32:01.315Z,12.80
2017-10-21T19:34:31.390Z,12.80
2017-10-21T19:37:00.819Z,12.80
2017-10-21T19:39:30.819Z,12.80
2017-10-21T19:41:59.855Z,12.80
2017-10-21T19:44:29.589Z,12.80
2017-10-21T19:46:59.196Z,12.70
2017-10-21T19:49:28.354Z,12.80
2017-10-21T19:51:56.354Z,12.80
2017-10-21T19:54:25.247Z,12.70
2017-10-21T19:56:55.665Z,12.70
2017-10-21T19:59:24.381Z,12.70
2017-10-21T20:01:52.981Z,12.70
2017-10-21T20:04:21.945Z,12.70
2017-10-21T20:06:51.166Z,12.70
2017-10-21T20:09:19.722Z,12.70
2017-10-21T20:11:48.909Z,12.70
2017-10-21T20:14:17.548Z,12.70
2017-10-21T20:16:46.719Z,12.70
2017-10-21T20:19:16.326Z,12.60
2017-10-21T20:21:45.295Z,12.60
2017-10-21T20:24:14.388Z,12.60
2017-10-21T20:26:43.185Z,12.50
2017-10-21T20:29:12.181Z,12.60
2017-10-21T20:31:40.522Z,12.50
2017-10-21T20:34:09.398Z,12.50
2017-10-21T20:36:40.264Z,12.50
2017-10-21T20:39:09.393Z,12.50
2017-10-21T20:41:38.306Z,12.40
2017-10-21T20:44:07.451Z,12.40
2017-10-21T20:46:37.715Z,12.40
2017-10-21T20:49:07.088Z,12.40
2017-10-21T20:51:36.810Z,12.40
2017-10-21T20:54:05.548Z,12.40
2017-10-21T20:56:34.576Z,12.40
2017-10-21T20:59:03.589Z,12.40
2017-10-21T21:01:32.449Z,12.40
2017-10-21T21:04:04.023Z,12.40
2017-10-21T21:06:35.692Z,12.40
2017-10-21T21:11:49.420Z,12.40
2017-10-21T21:14:17.320Z,12.30
2017-10-21T21:16:45.999Z,12.30
2017-10-21T21:19:15.184Z,12.30
2017-10-21T21:21:44.930Z,12.30
2017-10-21T21:24:14.471Z,12.30
2017-10-21T21:26:43.125Z,12.30
2017-10-21T21:29:11.705Z,12.30
2017-10-21T21:31:42.748Z,12.30
2017-10-21T21:34:12.525Z,12.30
2017-10-21T21:36:41.868Z,12.30
2017-10-21T21:39:10.463Z,12.30
2017-10-21T21:41:39.090Z,12.30
2017-10-21T21:44:08.004Z,12.30
2017-10-21T21:46:38.488Z,12.30
2017-10-21T21:49:08.274Z,12.30
2017-10-21T21:51:37.281Z,12.20
2017-10-21T21:54:05.041Z,12.30
2017-10-21T21:56:32.789Z,12.20
2017-10-21T21:59:00.654Z,12.30
2017-10-21T22:01:28.499Z,12.20
2017-10-21T22:03:57.549Z,12.30
2017-10-21T22:06:25.622Z,12.20
2017-10-21T22:08:52.266Z,12.20
2017-10-21T22:11:19.693Z,12.20
2017-10-21T22:13:46.608Z,12.20
2017-10-21T22:16:12.986Z,12.20
2017-10-21T22:18:39.300Z,12.20
2017-10-21T22:21:05.743Z,12.20
2017-10-21T22:23:32.050Z,12.10
2017-10-21T22:25:59.859Z,12.20
2017-10-21T22:28:26.983Z,12.10
2017-10-21T22:30:53.271Z,12.10
2017-10-21T22:33:19.585Z,12.10
2017-10-21T22:35:45.879Z,12.10
2017-10-21T22:38:12.151Z,11.90
2017-10-21T22:40:38.471Z,11.80
2017-10-21T22:43:04.758Z,11.80
2017-10-21T22:45:31.079Z,11.70
2017-10-21T22:47:57.350Z,11.60
2017-10-21T22:50:24.370Z,11.50
2017-10-21T22:52:50.666Z,11.50
2017-10-21T22:55:24.604Z,11.50
2017-10-21T22:57:56.829Z,11.50
2017-10-21T23:00:25.061Z,11.30
2017-10-21T23:02:51.684Z,11.30
2017-10-21T23:05:18.021Z,11.30
2017-10-21T23:07:44.311Z,11.30
2017-10-21T23:10:10.631Z,11.40
2017-10-21T23:12:36.898Z,11.30
2017-10-21T23:15:03.167Z,11.30
2017-10-21T23:17:29.572Z,11.30
2017-10-21T23:19:55.822Z,11.30
2017-10-21T23:22:22.115Z,11.30
2017-10-21T23:24:48.402Z,11.30
2017-10-21T23:27:15.759Z,11.30
2017-10-21T23:29:42.802Z,11.30
2017-10-21T23:32:09.883Z,11.30
2017-10-21T23:34:36.174Z,11.30
2017-10-21T23:37:02.463Z,11.30
2017-10-21T23:39:28.814Z,11.30
2017-10-21T23:41:55.084Z,11.30
2017-10-21T23:44:21.392Z,11.30
2017-10-21T23:46:47.707Z,11.30
2017-10-21T23:49:14.010Z,11.20
2017-10-21T23:51:40.310Z,11.20
2017-10-21T23:54:06.609Z,11.10
2017-10-21T23:56:32.899Z,11.10
2017-10-21T23:58:59.250Z,11.00
